Time,TemperatureF,DewpointF,PressureIn,WindDirection,WindDirectionDegrees,WindSpeedMPH,WindSpeedGustMPH,Humidity,HourlyPrecipIn,Conditions,Clouds,dailyrainin,SolarRadiationWatts/m^2,SoftwareType,DateUTC
2013-03-31 00:00:00,47.0,31.0,-100.00,South,180,4.0,-999.0,53,-99.99,,,-99.99,0.000000,,2013-03-31 04:00:00,
2013-03-31 00:43:00,47.0,31.0,-100.00,South,180,4.0,-999.0,53,-99.99,,,-99.99,0.000000,,2013-03-31 04:43:00,
2013-03-31 00:53:00,47.0,31.0,-100.00,South,180,4.0,-999.0,53,-99.99,,,-99.99,0.000000,,2013-03-31 04:53:00,
2013-03-31 02:00:00,46.0,32.0,-100.00,South,180,5.0,-999.0,57,-99.99,,,-99.99,0.000000,,2013-03-31 06:00:00,
2013-03-31 02:42:00,46.0,32.0,-100.00,South,180,5.0,-999.0,57,-99.99,,,-99.99,0.000000,,2013-03-31 06:42:00,
2013-03-31 02:52:00,46.0,32.0,-100.00,South,180,5.0,-999.0,57,-99.99,,,-99.99,0.000000,,2013-03-31 06:52:00,
2013-03-31 04:00:00,44.0,35.0,-100.00,SSW,202,7.0,-999.0,70,-99.99,,,-99.99,0.000000,,2013-03-31 08:00:00,
2013-03-31 04:42:00,44.0,35.0,-100.00,SSW,202,7.0,-999.0,70,-99.99,,,-99.99,0.000000,,2013-03-31 08:42:00,
2013-03-31 04:52:00,44.0,35.0,-100.00,SSW,202,7.0,-999.0,70,-99.99,,,-99.99,0.000000,,2013-03-31 08:52:00,
2013-03-31 05:00:00,43.0,38.0,-100.00,SSW,202,6.0,-999.0,82,0.01,,,-99.99,0.000000,,2013-03-31 09:00:00,
2013-03-31 05:43:00,43.0,38.0,-100.00,SSW,202,6.0,-999.0,82,0.01,,,-99.99,0.000000,,2013-03-31 09:43:00,
2013-03-31 05:53:00,43.0,38.0,-100.00,SSW,202,6.0,-999.0,82,0.01,,,-99.99,0.000000,,2013-03-31 09:53:00,
2013-03-31 07:00:00,43.0,40.0,-100.00,WSW,247,8.0,-999.0,92,0.02,,,-99.99,0.000000,,2013-03-31 11:00:00,
2013-03-31 07:42:00,43.0,40.0,-100.00,WSW,247,8.0,-999.0,92,0.02,,,-99.99,0.000000,,2013-03-31 11:42:00,
2013-03-31 07:53:00,43.0,40.0,-100.00,WSW,247,8.0,-999.0,92,0.02,,,-99.99,0.000000,,2013-03-31 11:53:00,
2013-03-31 10:00:00,42.0,39.0,-100.00,WNW,292,10.0,-999.0,89,-99.99,,,-99.99,157.759995,,2013-03-31 14:00:00,
2013-03-31 10:43:00,42.0,39.0,-100.00,WNW,292,10.0,-999.0,89,-99.99,,,-99.99,157.759995,,2013-03-31 14:43:00,
2013-03-31 10:52:00,42.0,39.0,-100.00,WNW,292,10.0,-999.0,89,-99.99,,,-99.99,157.759995,,2013-03-31 14:52:00,
2013-03-31 11:00:00,43.0,38.0,-100.00,WNW,292,11.0,-999.0,84,-99.99,,,-99.99,270.279999,,2013-03-31 15:00:00,
2013-03-31 11:43:00,43.0,38.0,-100.00,WNW,292,11.0,-999.0,84,-99.99,,,-99.99,270.279999,,2013-03-31 15:43:00,
2013-03-31 11:54:00,43.0,38.0,-100.00,WNW,292,11.0,-999.0,84,-99.99,,,-99.99,270.279999,,2013-03-31 15:54:00,
2013-03-31 13:00:00,46.0,38.0,-100.00,West,270,12.0,-999.0,72,-99.99,,,-99.99,675.119995,,2013-03-31 17:00:00,
2013-03-31 13:43:00,46.0,38.0,-100.00,West,270,12.0,-999.0,72,-99.99,,,-99.99,675.119995,,2013-03-31 17:43:00,
2013-03-31 13:52:00,46.0,38.0,-100.00,West,270,12.0,-999.0,72,-99.99,,,-99.99,675.119995,,2013-03-31 17:52:00,
2013-03-31 14:00:00,48.0,38.0,-100.00,WSW,247,12.0,-999.0,68,-99.99,,,-99.99,731.960022,,2013-03-31 18:00:00,
2013-03-31 14:43:00,48.0,38.0,-100.00,WSW,247,12.0,-999.0,68,-99.99,,,-99.99,731.960022,,2013-03-31 18:43:00,
2013-03-31 14:53:00,48.0,38.0,-100.00,WSW,247,12.0,-999.0,68,-99.99,,,-99.99,731.960022,,2013-03-31 18:53:00,
2013-03-31 15:00:00,51.0,37.0,-100.00,WSW,247,14.0,-999.0,59,-99.99,,,-99.99,774.880005,,2013-03-31 19:00:00,
2013-03-31 15:43:00,51.0,37.0,-100.00,WSW,247,14.0,-999.0,59,-99.99,,,-99.99,774.880005,,2013-03-31 19:43:00,
2013-03-31 15:54:00,51.0,37.0,-100.00,WSW,247,14.0,-999.0,59,-99.99,,,-99.99,774.880005,,2013-03-31 19:54:00,
2013-03-31 16:00:00,52.0,36.0,-100.00,West,270,15.0,-999.0,54,-99.99,,,-99.99,646.119995,,2013-03-31 20:00:00,
2013-03-31 16:43:00,52.0,36.0,-100.00,West,270,15.0,-999.0,54,-99.99,,,-99.99,646.119995,,2013-03-31 20:43:00,
2013-03-31 16:53:00,52.0,36.0,-100.00,West,270,15.0,-999.0,54,-99.99,,,-99.99,646.119995,,2013-03-31 20:53:00,
2013-03-31 17:00:00,52.0,35.0,-100.00,West,270,15.0,-999.0,53,-99.99,,,-99.99,385.119995,,2013-03-31 21:00:00,
2013-03-31 17:43:00,52.0,35.0,-100.00,West,270,15.0,-999.0,53,-99.99,,,-99.99,385.119995,,2013-03-31 21:43:00,
2013-03-31 17:54:00,52.0,35.0,-100.00,West,270,15.0,-999.0,53,-99.99,,,-99.99,385.119995,,2013-03-31 21:54:00,
2013-03-31 18:00:00,51.0,34.0,-100.00,West,270,13.0,-999.0,52,-99.99,,,-99.99,221.559998,,2013-03-31 22:00:00,
2013-03-31 18:43:00,51.0,34.0,-100.00,West,270,13.0,-999.0,52,-99.99,,,-99.99,221.559998,,2013-03-31 22:43:00,
2013-03-31 18:53:00,51.0,34.0,-100.00,West,270,13.0,-999.0,52,-99.99,,,-99.99,221.559998,,2013-03-31 22:53:00,
2013-03-31 19:00:00,49.0,34.0,-100.00,West,270,11.0,-999.0,55,-99.99,,,-99.99,106.720001,,2013-03-31 23:00:00,
2013-03-31 19:43:00,49.0,34.0,-100.00,West,270,11.0,-999.0,55,-99.99,,,-99.99,106.720001,,2013-03-31 23:43:00,
2013-03-31 19:53:00,49.0,34.0,-100.00,West,270,11.0,-999.0,55,-99.99,,,-99.99,106.720001,,2013-03-31 23:53:00,
2013-03-31 20:00:00,45.0,33.0,-100.00,NW,315,11.0,-999.0,62,-99.99,,,-99.99,30.160000,,2013-04-01 00:00:00,
2013-03-31 20:33:00,45.0,33.0,-100.00,NW,315,11.0,-999.0,62,-99.99,,,-99.99,30.160000,,2013-04-01 00:33:00,
2013-03-31 20:43:00,45.0,33.0,-100.00,NW,315,11.0,-999.0,62,-99.99,,,-99.99,30.160000,,2013-04-01 00:43:00,
2013-03-31 20:53:00,45.0,33.0,-100.00,NW,315,11.0,-999.0,62,-99.99,,,-99.99,30.160000,,2013-04-01 00:53:00,
2013-03-31 21:00:00,40.0,30.0,-100.00,NW,315,17.0,-999.0,67,-99.99,,,-99.99,1.160000,,2013-04-01 01:00:00,
2013-03-31 21:43:00,40.0,30.0,-100.00,NW,315,17.0,-999.0,67,-99.99,,,-99.99,1.160000,,2013-04-01 01:43:00,
2013-03-31 21:53:00,40.0,30.0,-100.00,NW,315,17.0,-999.0,67,-99.99,,,-99.99,1.160000,,2013-04-01 01:53:00,
2013-03-31 22:00:00,38.0,27.0,-100.00,WNW,292,15.0,-999.0,65,-99.99,,,-99.99,0.000000,,2013-04-01 02:00:00,
2013-03-31 22:43:00,38.0,27.0,-100.00,WNW,292,15.0,-999.0,65,-99.99,,,-99.99,0.000000,,2013-04-01 02:43:00,
2013-03-31 22:53:00,38.0,27.0,-100.00,WNW,292,15.0,-999.0,65,-99.99,,,-99.99,0.000000,,2013-04-01 02:53:00,
2013-03-31 23:00:00,37.0,26.0,-100.00,WNW,292,11.0,-999.0,63,-99.99,,,-99.99,0.000000,,2013-04-01 03:00:00,
2013-03-31 23:43:00,37.0,26.0,-100.00,WNW,292,11.0,-999.0,63,-99.99,,,-99.99,0.000000,,2013-04-01 03:43:00,
2013-03-31 23:53:00,37.0,26.0,-100.00,WNW,292,11.0,-999.0,63,-99.99,,,-99.99,0.000000,,2013-04-01 03:53:00,